sensor_id;sensor_type;location;lat;lon;timestamp;P1;durP1;ratioP1;P2;durP2;ratioP2
43529;SDS011;55654;50.966;6.878;2023-03-17T00:01:28;6.23;;;2.40;;
43529;SDS011;55654;50.966;6.878;2023-03-17T00:03:54;4.03;;;2.37;;
43529;SDS011;55654;50.966;6.878;2023-03-17T00:06:29;7.13;;;2.20;;
43529;SDS011;55654;50.966;6.878;2023-03-17T00:08:56;4.60;;;2.47;;
43529;SDS011;55654;50.966;6.878;2023-03-17T00:11:22;4.87;;;1.90;;
43529;SDS011;55654;50.966;6.878;2023-03-17T00:13:48;4.57;;;2.40;;
43529;SDS011;55654;50.966;6.878;2023-03-17T00:16:18;3.77;;;2.33;;
43529;SDS011;55654;50.966;6.878;2023-03-17T00:18:47;3.03;;;2.17;;
43529;SDS011;55654;50.966;6.878;2023-03-17T00:21:20;3.83;;;2.00;;
43529;SDS011;55654;50.966;6.878;2023-03-17T00:23:51;4.73;;;2.03;;
43529;SDS011;55654;50.966;6.878;2023-03-17T00:26:17;2.87;;;1.87;;
43529;SDS011;55654;50.966;6.878;2023-03-17T00:28:43;4.03;;;2.10;;
43529;SDS011;55654;50.966;6.878;2023-03-17T00:31:16;5.83;;;2.30;;
43529;SDS011;55654;50.966;6.878;2023-03-17T00:33:45;5.57;;;2.23;;
43529;SDS011;55654;50.966;6.878;2023-03-17T00:36:16;2.90;;;1.73;;
43529;SDS011;55654;50.966;6.878;2023-03-17T00:38:48;4.10;;;1.63;;
43529;SDS011;55654;50.966;6.878;2023-03-17T00:41:16;2.93;;;1.87;;
43529;SDS011;55654;50.966;6.878;2023-03-17T00:43:42;4.10;;;2.10;;
43529;SDS011;55654;50.966;6.878;2023-03-17T00:46:12;3.67;;;1.87;;
43529;SDS011;55654;50.966;6.878;2023-03-17T00:48:45;6.27;;;2.00;;
43529;SDS011;55654;50.966;6.878;2023-03-17T00:51:12;2.67;;;1.80;;
43529;SDS011;55654;50.966;6.878;2023-03-17T00:53:39;5.53;;;2.40;;
43529;SDS011;55654;50.966;6.878;2023-03-17T00:56:10;4.97;;;2.60;;
43529;SDS011;55654;50.966;6.878;2023-03-17T00:58:41;4.97;;;1.83;;
43529;SDS011;55654;50.966;6.878;2023-03-17T01:01:10;4.87;;;2.47;;
43529;SDS011;55654;50.966;6.878;2023-03-17T01:03:36;5.00;;;2.23;;
43529;SDS011;55654;50.966;6.878;2023-03-17T01:06:03;4.83;;;2.23;;
43529;SDS011;55654;50.966;6.878;2023-03-17T01:08:30;5.33;;;2.00;;
43529;SDS011;55654;50.966;6.878;2023-03-17T01:10:56;4.10;;;2.20;;
43529;SDS011;55654;50.966;6.878;2023-03-17T01:13:22;5.83;;;2.60;;
43529;SDS011;55654;50.966;6.878;2023-03-17T01:15:50;5.13;;;1.93;;
43529;SDS011;55654;50.966;6.878;2023-03-17T01:18:19;5.00;;;2.83;;
43529;SDS011;55654;50.966;6.878;2023-03-17T01:20:46;4.73;;;2.30;;
43529;SDS011;55654;50.966;6.878;2023-03-17T01:23:13;5.23;;;2.10;;
43529;SDS011;55654;50.966;6.878;2023-03-17T01:25:39;3.93;;;2.30;;
43529;SDS011;55654;50.966;6.878;2023-03-17T01:28:06;6.67;;;2.53;;
43529;SDS011;55654;50.966;6.878;2023-03-17T01:30:36;5.43;;;2.53;;
43529;SDS011;55654;50.966;6.878;2023-03-17T01:33:03;5.60;;;2.27;;
43529;SDS011;55654;50.966;6.878;2023-03-17T01:35:30;4.60;;;2.20;;
43529;SDS011;55654;50.966;6.878;2023-03-17T01:37:56;5.00;;;2.70;;
43529;SDS011;55654;50.966;6.878;2023-03-17T01:40:27;7.33;;;2.83;;
43529;SDS011;55654;50.966;6.878;2023-03-17T01:48:33;4.75;;;2.50;;
43529;SDS011;55654;50.966;6.878;2023-03-17T01:51:02;5.93;;;2.50;;
43529;SDS011;55654;50.966;6.878;2023-03-17T01:53:30;6.73;;;2.43;;
43529;SDS011;55654;50.966;6.878;2023-03-17T01:55:57;3.97;;;1.90;;
43529;SDS011;55654;50.966;6.878;2023-03-17T01:58:23;3.60;;;2.07;;
43529;SDS011;55654;50.966;6.878;2023-03-17T02:00:50;8.33;;;2.40;;
43529;SDS011;55654;50.966;6.878;2023-03-17T02:03:16;6.30;;;2.43;;
43529;SDS011;55654;50.966;6.878;2023-03-17T02:05:42;5.17;;;2.30;;
43529;SDS011;55654;50.966;6.878;2023-03-17T02:08:12;4.83;;;2.33;;
43529;SDS011;55654;50.966;6.878;2023-03-17T02:10:39;4.47;;;2.30;;
43529;SDS011;55654;50.966;6.878;2023-03-17T02:13:06;3.90;;;2.30;;
43529;SDS011;55654;50.966;6.878;2023-03-17T02:15:35;4.50;;;2.10;;
43529;SDS011;55654;50.966;6.878;2023-03-17T02:18:01;5.60;;;2.57;;
43529;SDS011;55654;50.966;6.878;2023-03-17T02:22:55;5.80;;;2.30;;
43529;SDS011;55654;50.966;6.878;2023-03-17T02:25:24;2.03;;;1.53;;
43529;SDS011;55654;50.966;6.878;2023-03-17T02:27:55;4.60;;;2.70;;
43529;SDS011;55654;50.966;6.878;2023-03-17T02:30:25;3.93;;;2.57;;
43529;SDS011;55654;50.966;6.878;2023-03-17T02:32:52;5.53;;;2.67;;
43529;SDS011;55654;50.966;6.878;2023-03-17T02:35:18;4.50;;;2.13;;
43529;SDS011;55654;50.966;6.878;2023-03-17T02:37:44;5.27;;;2.70;;
43529;SDS011;55654;50.966;6.878;2023-03-17T02:40:11;4.60;;;2.80;;
43529;SDS011;55654;50.966;6.878;2023-03-17T02:42:38;6.40;;;2.67;;
43529;SDS011;55654;50.966;6.878;2023-03-17T02:45:04;4.97;;;2.50;;
43529;SDS011;55654;50.966;6.878;2023-03-17T02:47:31;4.17;;;2.47;;
43529;SDS011;55654;50.966;6.878;2023-03-17T02:49:57;4.13;;;2.50;;
43529;SDS011;55654;50.966;6.878;2023-03-17T02:52:23;5.93;;;2.43;;
43529;SDS011;55654;50.966;6.878;2023-03-17T02:54:49;6.00;;;2.77;;
43529;SDS011;55654;50.966;6.878;2023-03-17T02:57:17;7.60;;;2.93;;
43529;SDS011;55654;50.966;6.878;2023-03-17T02:59:42;3.37;;;2.40;;
43529;SDS011;55654;50.966;6.878;2023-03-17T03:02:08;5.43;;;2.67;;
43529;SDS011;55654;50.966;6.878;2023-03-17T03:04:38;5.03;;;2.77;;
43529;SDS011;55654;50.966;6.878;2023-03-17T03:07:05;8.33;;;2.97;;
43529;SDS011;55654;50.966;6.878;2023-03-17T03:09:31;5.90;;;3.13;;
43529;SDS011;55654;50.966;6.878;2023-03-17T03:11:59;4.20;;;2.40;;
43529;SDS011;55654;50.966;6.878;2023-03-17T03:14:25;4.43;;;2.50;;
43529;SDS011;55654;50.966;6.878;2023-03-17T03:16:51;4.80;;;2.67;;
43529;SDS011;55654;50.966;6.878;2023-03-17T03:19:16;6.20;;;2.50;;
43529;SDS011;55654;50.966;6.878;2023-03-17T03:21:42;6.53;;;2.80;;
43529;SDS011;55654;50.966;6.878;2023-03-17T03:24:08;5.47;;;2.50;;
43529;SDS011;55654;50.966;6.878;2023-03-17T03:26:34;6.83;;;2.80;;
43529;SDS011;55654;50.966;6.878;2023-03-17T03:29:01;6.87;;;2.70;;
43529;SDS011;55654;50.966;6.878;2023-03-17T03:31:27;8.33;;;2.67;;
43529;SDS011;55654;50.966;6.878;2023-03-17T03:33:52;3.93;;;2.70;;
43529;SDS011;55654;50.966;6.878;2023-03-17T03:36:18;4.30;;;2.73;;
43529;SDS011;55654;50.966;6.878;2023-03-17T03:38:44;4.83;;;2.60;;
43529;SDS011;55654;50.966;6.878;2023-03-17T03:41:10;4.97;;;2.90;;
43529;SDS011;55654;50.966;6.878;2023-03-17T03:43:38;8.03;;;3.23;;
43529;SDS011;55654;50.966;6.878;2023-03-17T03:46:06;4.27;;;2.60;;
43529;SDS011;55654;50.966;6.878;2023-03-17T03:48:32;5.87;;;2.33;;
43529;SDS011;55654;50.966;6.878;2023-03-17T03:51:01;6.43;;;2.73;;
43529;SDS011;55654;50.966;6.878;2023-03-17T03:53:27;3.67;;;2.57;;
43529;SDS011;55654;50.966;6.878;2023-03-17T03:55:54;5.27;;;2.70;;
43529;SDS011;55654;50.966;6.878;2023-03-17T03:58:20;7.00;;;3.00;;
43529;SDS011;55654;50.966;6.878;2023-03-17T04:00:45;8.37;;;2.23;;
43529;SDS011;55654;50.966;6.878;2023-03-17T04:03:12;5.80;;;2.73;;
43529;SDS011;55654;50.966;6.878;2023-03-17T04:05:40;5.47;;;2.57;;
43529;SDS011;55654;50.966;6.878;2023-03-17T04:08:06;6.43;;;2.80;;
43529;SDS011;55654;50.966;6.878;2023-03-17T04:10:32;5.97;;;2.80;;
43529;SDS011;55654;50.966;6.878;2023-03-17T04:12:57;4.47;;;2.80;;
43529;SDS011;55654;50.966;6.878;2023-03-17T04:15:23;5.23;;;2.40;;
43529;SDS011;55654;50.966;6.878;2023-03-17T04:17:49;5.33;;;2.73;;
43529;SDS011;55654;50.966;6.878;2023-03-17T04:20:15;5.97;;;3.20;;
43529;SDS011;55654;50.966;6.878;2023-03-17T04:22:41;6.77;;;3.03;;
43529;SDS011;55654;50.966;6.878;2023-03-17T04:25:07;5.77;;;2.80;;
43529;SDS011;55654;50.966;6.878;2023-03-17T04:27:37;4.47;;;2.70;;
43529;SDS011;55654;50.966;6.878;2023-03-17T04:30:06;6.97;;;2.80;;
43529;SDS011;55654;50.966;6.878;2023-03-17T04:32:32;5.87;;;3.33;;
43529;SDS011;55654;50.966;6.878;2023-03-17T04:34:58;5.60;;;2.67;;
43529;SDS011;55654;50.966;6.878;2023-03-17T04:37:23;10.50;;;2.93;;
43529;SDS011;55654;50.966;6.878;2023-03-17T04:39:49;4.80;;;2.60;;
43529;SDS011;55654;50.966;6.878;2023-03-17T04:42:17;4.63;;;2.60;;
43529;SDS011;55654;50.966;6.878;2023-03-17T04:44:43;6.00;;;3.20;;
43529;SDS011;55654;50.966;6.878;2023-03-17T04:47:08;8.00;;;3.10;;
43529;SDS011;55654;50.966;6.878;2023-03-17T04:49:34;8.07;;;3.00;;
43529;SDS011;55654;50.966;6.878;2023-03-17T04:52:02;6.00;;;3.13;;
43529;SDS011;55654;50.966;6.878;2023-03-17T04:54:30;4.40;;;2.70;;
43529;SDS011;55654;50.966;6.878;2023-03-17T04:56:56;5.33;;;3.43;;
43529;SDS011;55654;50.966;6.878;2023-03-17T04:59:24;6.53;;;2.93;;
43529;SDS011;55654;50.966;6.878;2023-03-17T05:01:49;9.37;;;3.00;;
43529;SDS011;55654;50.966;6.878;2023-03-17T05:04:15;6.30;;;3.57;;
43529;SDS011;55654;50.966;6.878;2023-03-17T05:06:41;7.53;;;3.03;;
43529;SDS011;55654;50.966;6.878;2023-03-17T05:09:08;5.83;;;2.90;;
43529;SDS011;55654;50.966;6.878;2023-03-17T05:11:36;6.33;;;3.13;;
43529;SDS011;55654;50.966;6.878;2023-03-17T05:14:02;7.37;;;2.83;;
43529;SDS011;55654;50.966;6.878;2023-03-17T05:16:30;8.20;;;3.30;;
43529;SDS011;55654;50.966;6.878;2023-03-17T05:18:55;5.20;;;2.97;;
43529;SDS011;55654;50.966;6.878;2023-03-17T05:21:23;5.87;;;2.90;;
43529;SDS011;55654;50.966;6.878;2023-03-17T05:23:51;5.20;;;3.07;;
43529;SDS011;55654;50.966;6.878;2023-03-17T05:26:17;6.07;;;3.27;;
43529;SDS011;55654;50.966;6.878;2023-03-17T05:28:45;6.73;;;3.27;;
43529;SDS011;55654;50.966;6.878;2023-03-17T05:31:12;8.00;;;3.30;;
43529;SDS011;55654;50.966;6.878;2023-03-17T05:33:37;6.87;;;3.33;;
43529;SDS011;55654;50.966;6.878;2023-03-17T05:36:03;6.23;;;3.60;;
43529;SDS011;55654;50.966;6.878;2023-03-17T05:38:29;6.10;;;3.50;;
43529;SDS011;55654;50.966;6.878;2023-03-17T05:40:57;9.73;;;3.67;;
43529;SDS011;55654;50.966;6.878;2023-03-17T05:43:23;6.50;;;3.17;;
43529;SDS011;55654;50.966;6.878;2023-03-17T05:45:48;5.70;;;3.13;;
43529;SDS011;55654;50.966;6.878;2023-03-17T05:48:14;5.93;;;3.47;;
43529;SDS011;55654;50.966;6.878;2023-03-17T05:50:41;7.43;;;3.70;;
43529;SDS011;55654;50.966;6.878;2023-03-17T05:53:06;6.63;;;2.97;;
43529;SDS011;55654;50.966;6.878;2023-03-17T05:55:32;6.23;;;3.30;;
43529;SDS011;55654;50.966;6.878;2023-03-17T05:58:00;4.43;;;3.13;;
43529;SDS011;55654;50.966;6.878;2023-03-17T06:00:28;4.97;;;2.73;;
43529;SDS011;55654;50.966;6.878;2023-03-17T06:02:54;4.60;;;2.70;;
43529;SDS011;55654;50.966;6.878;2023-03-17T06:05:22;3.53;;;2.53;;
43529;SDS011;55654;50.966;6.878;2023-03-17T06:07:48;5.43;;;3.20;;
43529;SDS011;55654;50.966;6.878;2023-03-17T06:10:13;5.57;;;3.40;;
43529;SDS011;55654;50.966;6.878;2023-03-17T06:12:39;7.13;;;3.33;;
43529;SDS011;55654;50.966;6.878;2023-03-17T06:15:05;9.20;;;3.50;;
43529;SDS011;55654;50.966;6.878;2023-03-17T06:17:32;5.87;;;3.17;;
43529;SDS011;55654;50.966;6.878;2023-03-17T06:19:58;5.83;;;3.00;;
43529;SDS011;55654;50.966;6.878;2023-03-17T06:22:26;6.47;;;3.37;;
43529;SDS011;55654;50.966;6.878;2023-03-17T06:24:51;6.43;;;3.70;;
43529;SDS011;55654;50.966;6.878;2023-03-17T06:27:17;6.37;;;3.10;;
43529;SDS011;55654;50.966;6.878;2023-03-17T06:29:44;8.60;;;3.27;;
43529;SDS011;55654;50.966;6.878;2023-03-17T06:32:09;6.97;;;3.20;;
43529;SDS011;55654;50.966;6.878;2023-03-17T06:34:35;5.30;;;3.20;;
43529;SDS011;55654;50.966;6.878;2023-03-17T06:37:01;5.33;;;3.03;;
43529;SDS011;55654;50.966;6.878;2023-03-17T06:39:28;5.87;;;2.87;;
43529;SDS011;55654;50.966;6.878;2023-03-17T06:41:54;10.57;;;3.73;;
43529;SDS011;55654;50.966;6.878;2023-03-17T06:44:20;4.57;;;2.50;;
43529;SDS011;55654;50.966;6.878;2023-03-17T06:46:46;5.37;;;3.67;;
43529;SDS011;55654;50.966;6.878;2023-03-17T06:49:11;7.90;;;3.30;;
43529;SDS011;55654;50.966;6.878;2023-03-17T06:51:39;13.10;;;6.80;;
43529;SDS011;55654;50.966;6.878;2023-03-17T06:54:05;8.90;;;4.47;;
43529;SDS011;55654;50.966;6.878;2023-03-17T06:56:32;9.57;;;3.40;;
43529;SDS011;55654;50.966;6.878;2023-03-17T06:59:00;8.67;;;3.57;;
43529;SDS011;55654;50.966;6.878;2023-03-17T07:01:26;9.77;;;3.00;;
43529;SDS011;55654;50.966;6.878;2023-03-17T07:03:51;9.07;;;2.97;;
43529;SDS011;55654;50.966;6.878;2023-03-17T07:06:17;7.97;;;3.13;;
43529;SDS011;55654;50.966;6.878;2023-03-17T07:08:43;6.83;;;3.20;;
43529;SDS011;55654;50.966;6.878;2023-03-17T07:11:10;4.80;;;2.83;;
43529;SDS011;55654;50.966;6.878;2023-03-17T07:13:39;9.43;;;2.97;;
43529;SDS011;55654;50.966;6.878;2023-03-17T07:16:08;7.67;;;4.77;;
43529;SDS011;55654;50.966;6.878;2023-03-17T07:18:36;11.07;;;3.70;;
43529;SDS011;55654;50.966;6.878;2023-03-17T07:21:01;5.57;;;3.47;;
43529;SDS011;55654;50.966;6.878;2023-03-17T07:23:29;11.67;;;4.27;;
43529;SDS011;55654;50.966;6.878;2023-03-17T07:25:55;7.20;;;3.63;;
43529;SDS011;55654;50.966;6.878;2023-03-17T07:28:24;6.33;;;3.70;;
43529;SDS011;55654;50.966;6.878;2023-03-17T07:30:52;5.27;;;2.80;;
43529;SDS011;55654;50.966;6.878;2023-03-17T07:33:18;7.63;;;3.53;;
43529;SDS011;55654;50.966;6.878;2023-03-17T07:35:47;8.87;;;3.37;;
43529;SDS011;55654;50.966;6.878;2023-03-17T07:38:14;8.77;;;3.87;;
43529;SDS011;55654;50.966;6.878;2023-03-17T07:40:41;11.60;;;4.33;;
43529;SDS011;55654;50.966;6.878;2023-03-17T07:43:08;9.20;;;3.80;;
43529;SDS011;55654;50.966;6.878;2023-03-17T07:45:34;10.47;;;3.83;;
43529;SDS011;55654;50.966;6.878;2023-03-17T07:48:00;11.63;;;4.53;;
43529;SDS011;55654;50.966;6.878;2023-03-17T07:50:31;8.43;;;3.80;;
43529;SDS011;55654;50.966;6.878;2023-03-17T07:52:59;4.83;;;2.67;;
43529;SDS011;55654;50.966;6.878;2023-03-17T07:55:27;5.30;;;3.37;;
43529;SDS011;55654;50.966;6.878;2023-03-17T07:57:53;12.13;;;4.23;;
43529;SDS011;55654;50.966;6.878;2023-03-17T08:00:18;9.70;;;3.00;;
43529;SDS011;55654;50.966;6.878;2023-03-17T08:02:47;5.53;;;2.83;;
43529;SDS011;55654;50.966;6.878;2023-03-17T08:05:14;7.63;;;4.03;;
43529;SDS011;55654;50.966;6.878;2023-03-17T08:07:39;7.73;;;5.10;;
43529;SDS011;55654;50.966;6.878;2023-03-17T08:10:05;7.03;;;3.00;;
43529;SDS011;55654;50.966;6.878;2023-03-17T08:12:34;9.90;;;3.83;;
43529;SDS011;55654;50.966;6.878;2023-03-17T08:15:00;11.30;;;4.10;;
43529;SDS011;55654;50.966;6.878;2023-03-17T08:17:26;7.10;;;3.30;;
43529;SDS011;55654;50.966;6.878;2023-03-17T08:19:55;8.23;;;3.93;;
43529;SDS011;55654;50.966;6.878;2023-03-17T08:22:20;10.97;;;5.67;;
43529;SDS011;55654;50.966;6.878;2023-03-17T08:24:49;8.97;;;4.27;;
43529;SDS011;55654;50.966;6.878;2023-03-17T08:27:15;9.83;;;5.70;;
43529;SDS011;55654;50.966;6.878;2023-03-17T08:29:42;8.83;;;3.13;;
43529;SDS011;55654;50.966;6.878;2023-03-17T08:32:08;6.27;;;2.93;;
43529;SDS011;55654;50.966;6.878;2023-03-17T08:34:34;7.97;;;3.37;;
43529;SDS011;55654;50.966;6.878;2023-03-17T08:37:00;5.00;;;2.80;;
43529;SDS011;55654;50.966;6.878;2023-03-17T08:39:26;9.37;;;3.60;;
43529;SDS011;55654;50.966;6.878;2023-03-17T08:41:52;9.27;;;3.43;;
43529;SDS011;55654;50.966;6.878;2023-03-17T08:44:18;7.90;;;3.20;;
43529;SDS011;55654;50.966;6.878;2023-03-17T08:46:44;6.13;;;3.27;;
43529;SDS011;55654;50.966;6.878;2023-03-17T08:49:11;6.17;;;3.00;;
43529;SDS011;55654;50.966;6.878;2023-03-17T08:51:37;4.87;;;2.73;;
43529;SDS011;55654;50.966;6.878;2023-03-17T08:54:04;6.07;;;2.70;;
43529;SDS011;55654;50.966;6.878;2023-03-17T08:56:30;4.17;;;2.80;;
43529;SDS011;55654;50.966;6.878;2023-03-17T08:58:56;4.43;;;2.10;;
43529;SDS011;55654;50.966;6.878;2023-03-17T09:01:22;7.23;;;2.83;;
43529;SDS011;55654;50.966;6.878;2023-03-17T09:03:49;8.23;;;2.97;;
43529;SDS011;55654;50.966;6.878;2023-03-17T09:06:16;7.13;;;2.10;;
43529;SDS011;55654;50.966;6.878;2023-03-17T09:08:42;5.67;;;3.00;;
43529;SDS011;55654;50.966;6.878;2023-03-17T09:11:12;15.57;;;3.10;;
43529;SDS011;55654;50.966;6.878;2023-03-17T09:13:40;9.73;;;3.28;;
43529;SDS011;55654;50.966;6.878;2023-03-17T09:16:09;6.63;;;2.70;;
43529;SDS011;55654;50.966;6.878;2023-03-17T09:18:37;6.27;;;2.20;;
43529;SDS011;55654;50.966;6.878;2023-03-17T09:21:03;5.13;;;1.87;;
43529;SDS011;55654;50.966;6.878;2023-03-17T09:23:31;4.47;;;2.00;;
43529;SDS011;55654;50.966;6.878;2023-03-17T09:25:57;5.60;;;2.80;;
43529;SDS011;55654;50.966;6.878;2023-03-17T09:28:23;4.23;;;2.37;;
43529;SDS011;55654;50.966;6.878;2023-03-17T09:30:49;6.13;;;1.93;;
43529;SDS011;55654;50.966;6.878;2023-03-17T09:33:15;8.67;;;3.77;;
43529;SDS011;55654;50.966;6.878;2023-03-17T09:35:41;7.47;;;3.53;;
43529;SDS011;55654;50.966;6.878;2023-03-17T09:38:07;6.63;;;2.33;;
43529;SDS011;55654;50.966;6.878;2023-03-17T09:46:29;6.80;;;2.50;;
43529;SDS011;55654;50.966;6.878;2023-03-17T09:49:18;4.27;;;2.43;;
43529;SDS011;55654;50.966;6.878;2023-03-17T09:52:12;6.03;;;2.40;;
43529;SDS011;55654;50.966;6.878;2023-03-17T09:54:40;6.88;;;2.50;;
43529;SDS011;55654;50.966;6.878;2023-03-17T09:57:17;3.23;;;1.67;;
43529;SDS011;55654;50.966;6.878;2023-03-17T09:59:47;8.40;;;2.67;;
43529;SDS011;55654;50.966;6.878;2023-03-17T10:04:46;6.03;;;2.60;;
43529;SDS011;55654;50.966;6.878;2023-03-17T10:07:13;5.90;;;2.63;;
43529;SDS011;55654;50.966;6.878;2023-03-17T10:09:58;5.47;;;2.35;;
43529;SDS011;55654;50.966;6.878;2023-03-17T10:12:40;9.65;;;2.80;;
43529;SDS011;55654;50.966;6.878;2023-03-17T10:15:15;8.43;;;2.60;;
43529;SDS011;55654;50.966;6.878;2023-03-17T10:17:42;4.32;;;2.05;;
43529;SDS011;55654;50.966;6.878;2023-03-17T10:20:14;6.82;;;2.65;;
43529;SDS011;55654;50.966;6.878;2023-03-17T10:22:50;7.85;;;3.63;;
43529;SDS011;55654;50.966;6.878;2023-03-17T10:25:20;4.30;;;2.65;;
43529;SDS011;55654;50.966;6.878;2023-03-17T10:28:09;3.70;;;2.00;;
43529;SDS011;55654;50.966;6.878;2023-03-17T10:30:33;4.05;;;2.25;;
43529;SDS011;55654;50.966;6.878;2023-03-17T10:33:00;5.93;;;2.78;;
43529;SDS011;55654;50.966;6.878;2023-03-17T10:35:27;5.40;;;2.08;;
43529;SDS011;55654;50.966;6.878;2023-03-17T10:37:53;3.75;;;1.83;;
43529;SDS011;55654;50.966;6.878;2023-03-17T10:40:20;2.85;;;1.70;;
43529;SDS011;55654;50.966;6.878;2023-03-17T10:42:48;7.90;;;1.95;;
43529;SDS011;55654;50.966;6.878;2023-03-17T10:45:25;5.65;;;1.77;;
43529;SDS011;55654;50.966;6.878;2023-03-17T10:47:53;4.63;;;1.90;;
43529;SDS011;55654;50.966;6.878;2023-03-17T10:52:47;5.35;;;2.33;;
43529;SDS011;55654;50.966;6.878;2023-03-17T10:55:19;4.82;;;2.13;;
43529;SDS011;55654;50.966;6.878;2023-03-17T10:58:00;3.88;;;2.00;;
43529;SDS011;55654;50.966;6.878;2023-03-17T11:00:27;5.00;;;2.15;;
43529;SDS011;55654;50.966;6.878;2023-03-17T11:02:54;4.53;;;2.15;;
43529;SDS011;55654;50.966;6.878;2023-03-17T11:05:22;4.78;;;2.72;;
43529;SDS011;55654;50.966;6.878;2023-03-17T11:07:49;6.93;;;1.90;;
43529;SDS011;55654;50.966;6.878;2023-03-17T11:12:57;3.17;;;2.13;;
43529;SDS011;55654;50.966;6.878;2023-03-17T11:15:27;4.60;;;2.00;;
43529;SDS011;55654;50.966;6.878;2023-03-17T11:18:13;5.90;;;2.13;;
43529;SDS011;55654;50.966;6.878;2023-03-17T11:20:45;5.47;;;2.70;;
43529;SDS011;55654;50.966;6.878;2023-03-17T11:25:39;3.95;;;1.85;;
43529;SDS011;55654;50.966;6.878;2023-03-17T11:28:17;4.25;;;1.95;;
43529;SDS011;55654;50.966;6.878;2023-03-17T11:33:27;9.07;;;2.25;;
43529;SDS011;55654;50.966;6.878;2023-03-17T11:36:02;3.60;;;1.65;;
43529;SDS011;55654;50.966;6.878;2023-03-17T11:38:34;4.15;;;2.20;;
43529;SDS011;55654;50.966;6.878;2023-03-17T11:46:08;7.72;;;1.90;;
43529;SDS011;55654;50.966;6.878;2023-03-17T11:51:11;6.45;;;2.10;;
43529;SDS011;55654;50.966;6.878;2023-03-17T11:56:13;5.88;;;1.75;;
43529;SDS011;55654;50.966;6.878;2023-03-17T11:58:44;6.05;;;2.03;;
43529;SDS011;55654;50.966;6.878;2023-03-17T12:01:13;4.20;;;2.03;;
43529;SDS011;55654;50.966;6.878;2023-03-17T12:03:50;6.25;;;2.17;;
43529;SDS011;55654;50.966;6.878;2023-03-17T12:08:50;3.67;;;2.20;;
43529;SDS011;55654;50.966;6.878;2023-03-17T12:11:19;5.05;;;1.80;;
43529;SDS011;55654;50.966;6.878;2023-03-17T12:13:47;9.45;;;1.92;;
43529;SDS011;55654;50.966;6.878;2023-03-17T12:16:17;6.45;;;2.20;;
43529;SDS011;55654;50.966;6.878;2023-03-17T12:19:06;4.75;;;1.88;;
43529;SDS011;55654;50.966;6.878;2023-03-17T12:21:36;8.02;;;2.28;;
43529;SDS011;55654;50.966;6.878;2023-03-17T12:26:37;4.70;;;1.80;;
43529;SDS011;55654;50.966;6.878;2023-03-17T12:29:08;3.53;;;1.60;;
43529;SDS011;55654;50.966;6.878;2023-03-17T12:31:38;7.13;;;2.03;;
43529;SDS011;55654;50.966;6.878;2023-03-17T12:36:35;7.88;;;2.38;;
43529;SDS011;55654;50.966;6.878;2023-03-17T12:39:10;4.72;;;2.22;;
43529;SDS011;55654;50.966;6.878;2023-03-17T12:55:01;3.35;;;2.10;;
43529;SDS011;55654;50.966;6.878;2023-03-17T12:57:36;6.05;;;1.95;;
43529;SDS011;55654;50.966;6.878;2023-03-17T13:00:05;3.40;;;1.73;;
43529;SDS011;55654;50.966;6.878;2023-03-17T13:02:36;5.88;;;1.95;;
43529;SDS011;55654;50.966;6.878;2023-03-17T13:05:12;5.38;;;1.65;;
43529;SDS011;55654;50.966;6.878;2023-03-17T13:07:47;6.75;;;1.67;;
43529;SDS011;55654;50.966;6.878;2023-03-17T13:17:47;8.35;;;1.70;;
43529;SDS011;55654;50.966;6.878;2023-03-17T13:20:17;5.15;;;1.90;;
43529;SDS011;55654;50.966;6.878;2023-03-17T13:25:29;21.08;;;2.72;;
43529;SDS011;55654;50.966;6.878;2023-03-17T13:28:14;7.20;;;1.80;;
43529;SDS011;55654;50.966;6.878;2023-03-17T13:35:41;4.32;;;1.30;;
43529;SDS011;55654;50.966;6.878;2023-03-17T13:43:33;8.27;;;1.77;;
43529;SDS011;55654;50.966;6.878;2023-03-17T13:48:45;8.23;;;2.38;;
43529;SDS011;55654;50.966;6.878;2023-03-17T13:53:45;4.63;;;2.17;;
43529;SDS011;55654;50.966;6.878;2023-03-17T13:56:26;3.60;;;1.95;;
43529;SDS011;55654;50.966;6.878;2023-03-17T14:01:27;3.60;;;1.50;;
43529;SDS011;55654;50.966;6.878;2023-03-17T14:03:54;6.13;;;2.22;;
43529;SDS011;55654;50.966;6.878;2023-03-17T14:06:27;4.18;;;1.75;;
43529;SDS011;55654;50.966;6.878;2023-03-17T14:08:58;10.15;;;2.05;;
43529;SDS011;55654;50.966;6.878;2023-03-17T14:14:05;8.90;;;2.47;;
43529;SDS011;55654;50.966;6.878;2023-03-17T14:16:36;2.15;;;1.48;;
43529;SDS011;55654;50.966;6.878;2023-03-17T14:19:09;4.07;;;1.67;;
43529;SDS011;55654;50.966;6.878;2023-03-17T14:21:38;3.65;;;1.80;;
43529;SDS011;55654;50.966;6.878;2023-03-17T14:24:18;4.53;;;1.45;;
43529;SDS011;55654;50.966;6.878;2023-03-17T14:26:45;4.78;;;2.35;;
43529;SDS011;55654;50.966;6.878;2023-03-17T14:29:13;13.88;;;2.50;;
43529;SDS011;55654;50.966;6.878;2023-03-17T14:31:39;11.13;;;1.70;;
43529;SDS011;55654;50.966;6.878;2023-03-17T14:34:11;2.60;;;1.60;;
43529;SDS011;55654;50.966;6.878;2023-03-17T14:36:38;7.38;;;2.00;;
43529;SDS011;55654;50.966;6.878;2023-03-17T14:39:05;3.45;;;1.95;;
43529;SDS011;55654;50.966;6.878;2023-03-17T14:41:32;5.32;;;1.48;;
43529;SDS011;55654;50.966;6.878;2023-03-17T14:43:59;5.07;;;1.52;;
43529;SDS011;55654;50.966;6.878;2023-03-17T14:46:29;3.40;;;1.90;;
43529;SDS011;55654;50.966;6.878;2023-03-17T14:49:16;8.52;;;2.10;;
43529;SDS011;55654;50.966;6.878;2023-03-17T14:51:41;5.40;;;1.60;;
43529;SDS011;55654;50.966;6.878;2023-03-17T14:54:12;5.90;;;1.83;;
43529;SDS011;55654;50.966;6.878;2023-03-17T14:56:40;7.78;;;2.60;;
43529;SDS011;55654;50.966;6.878;2023-03-17T14:59:28;3.65;;;1.80;;
43529;SDS011;55654;50.966;6.878;2023-03-17T15:01:53;6.15;;;1.80;;
43529;SDS011;55654;50.966;6.878;2023-03-17T15:04:21;5.15;;;1.60;;
43529;SDS011;55654;50.966;6.878;2023-03-17T15:06:52;4.85;;;2.20;;
43529;SDS011;55654;50.966;6.878;2023-03-17T15:09:34;5.57;;;2.10;;
43529;SDS011;55654;50.966;6.878;2023-03-17T15:12:16;6.40;;;1.73;;
43529;SDS011;55654;50.966;6.878;2023-03-17T15:14:45;7.25;;;1.90;;
43529;SDS011;55654;50.966;6.878;2023-03-17T15:17:16;4.78;;;2.17;;
43529;SDS011;55654;50.966;6.878;2023-03-17T15:19:43;4.28;;;1.40;;
43529;SDS011;55654;50.966;6.878;2023-03-17T15:22:28;3.13;;;1.65;;
43529;SDS011;55654;50.966;6.878;2023-03-17T15:27:39;4.95;;;2.00;;
43529;SDS011;55654;50.966;6.878;2023-03-17T15:30:05;3.05;;;1.90;;
43529;SDS011;55654;50.966;6.878;2023-03-17T15:32:31;7.70;;;1.83;;
43529;SDS011;55654;50.966;6.878;2023-03-17T15:34:57;5.47;;;2.13;;
43529;SDS011;55654;50.966;6.878;2023-03-17T15:37:25;6.80;;;1.60;;
43529;SDS011;55654;50.966;6.878;2023-03-17T15:39:51;4.22;;;1.92;;
43529;SDS011;55654;50.966;6.878;2023-03-17T15:42:19;3.20;;;1.67;;
43529;SDS011;55654;50.966;6.878;2023-03-17T15:44:46;2.90;;;1.67;;
43529;SDS011;55654;50.966;6.878;2023-03-17T15:47:13;5.95;;;2.35;;
43529;SDS011;55654;50.966;6.878;2023-03-17T15:49:39;6.78;;;1.80;;
43529;SDS011;55654;50.966;6.878;2023-03-17T15:52:25;5.25;;;1.45;;
43529;SDS011;55654;50.966;6.878;2023-03-17T15:54:55;8.70;;;2.00;;
43529;SDS011;55654;50.966;6.878;2023-03-17T15:57:21;3.88;;;1.83;;
43529;SDS011;55654;50.966;6.878;2023-03-17T15:59:48;6.47;;;1.63;;
43529;SDS011;55654;50.966;6.878;2023-03-17T16:04:50;4.30;;;1.40;;
43529;SDS011;55654;50.966;6.878;2023-03-17T16:07:16;4.13;;;1.70;;
43529;SDS011;55654;50.966;6.878;2023-03-17T16:09:45;5.60;;;1.50;;
43529;SDS011;55654;50.966;6.878;2023-03-17T16:12:11;3.72;;;1.67;;
43529;SDS011;55654;50.966;6.878;2023-03-17T16:14:37;7.72;;;1.63;;
43529;SDS011;55654;50.966;6.878;2023-03-17T16:17:04;4.30;;;2.30;;
43529;SDS011;55654;50.966;6.878;2023-03-17T16:19:33;4.70;;;1.67;;
43529;SDS011;55654;50.966;6.878;2023-03-17T16:21:59;6.03;;;2.58;;
43529;SDS011;55654;50.966;6.878;2023-03-17T16:24:25;4.07;;;2.03;;
43529;SDS011;55654;50.966;6.878;2023-03-17T16:26:52;7.00;;;1.83;;
43529;SDS011;55654;50.966;6.878;2023-03-17T16:29:20;7.68;;;2.05;;